sensor_id;sensor_type;location;lat;lon;timestamp;P1;durP1;ratioP1;P2;durP2;ratioP2
11761;SDS011;5938;47.098;15.474;2022-12-07T00:02:43;18.47;;;10.37;;
11761;SDS011;5938;47.098;15.474;2022-12-07T00:06:50;17.90;;;11.70;;
11761;SDS011;5938;47.098;15.474;2022-12-07T00:10:54;22.47;;;10.70;;
11761;SDS011;5938;47.098;15.474;2022-12-07T00:14:57;15.50;;;9.73;;
11761;SDS011;5938;47.098;15.474;2022-12-07T00:19:01;27.10;;;12.70;;
11761;SDS011;5938;47.098;15.474;2022-12-07T00:23:06;30.03;;;13.37;;
11761;SDS011;5938;47.098;15.474;2022-12-07T00:27:10;47.20;;;12.40;;
11761;SDS011;5938;47.098;15.474;2022-12-07T00:31:14;18.93;;;10.57;;
11761;SDS011;5938;47.098;15.474;2022-12-07T00:35:18;73.77;;;14.53;;
11761;SDS011;5938;47.098;15.474;2022-12-07T00:39:23;42.10;;;16.03;;
11761;SDS011;5938;47.098;15.474;2022-12-07T00:43:27;42.13;;;14.27;;
11761;SDS011;5938;47.098;15.474;2022-12-07T00:47:30;55.53;;;14.00;;
11761;SDS011;5938;47.098;15.474;2022-12-07T00:51:34;12.30;;;8.00;;
11761;SDS011;5938;47.098;15.474;2022-12-07T00:55:39;88.07;;;20.10;;
11761;SDS011;5938;47.098;15.474;2022-12-07T00:59:42;82.23;;;17.70;;
11761;SDS011;5938;47.098;15.474;2022-12-07T01:03:46;34.63;;;12.73;;
11761;SDS011;5938;47.098;15.474;2022-12-07T01:07:50;20.13;;;10.37;;
11761;SDS011;5938;47.098;15.474;2022-12-07T01:11:55;30.80;;;13.40;;
11761;SDS011;5938;47.098;15.474;2022-12-07T01:15:59;16.93;;;10.40;;
11761;SDS011;5938;47.098;15.474;2022-12-07T01:20:05;36.07;;;12.80;;
11761;SDS011;5938;47.098;15.474;2022-12-07T01:24:09;18.37;;;9.93;;
11761;SDS011;5938;47.098;15.474;2022-12-07T01:28:14;55.97;;;11.47;;
11761;SDS011;5938;47.098;15.474;2022-12-07T01:32:18;21.70;;;10.33;;
11761;SDS011;5938;47.098;15.474;2022-12-07T01:36:23;14.87;;;10.07;;
11761;SDS011;5938;47.098;15.474;2022-12-07T01:40:27;26.77;;;10.10;;
11761;SDS011;5938;47.098;15.474;2022-12-07T01:44:32;12.80;;;8.10;;
11761;SDS011;5938;47.098;15.474;2022-12-07T01:48:36;18.57;;;9.27;;
11761;SDS011;5938;47.098;15.474;2022-12-07T01:52:42;34.60;;;12.00;;
11761;SDS011;5938;47.098;15.474;2022-12-07T01:56:49;51.60;;;12.60;;
11761;SDS011;5938;47.098;15.474;2022-12-07T02:00:55;30.63;;;11.30;;
11761;SDS011;5938;47.098;15.474;2022-12-07T02:04:59;44.43;;;10.93;;
11761;SDS011;5938;47.098;15.474;2022-12-07T02:09:04;24.77;;;10.60;;
11761;SDS011;5938;47.098;15.474;2022-12-07T02:13:08;16.23;;;9.73;;
11761;SDS011;5938;47.098;15.474;2022-12-07T02:17:17;12.83;;;9.27;;
11761;SDS011;5938;47.098;15.474;2022-12-07T02:21:27;26.93;;;11.07;;
11761;SDS011;5938;47.098;15.474;2022-12-07T02:25:45;16.63;;;9.77;;
11761;SDS011;5938;47.098;15.474;2022-12-07T02:30:17;17.60;;;10.17;;
11761;SDS011;5938;47.098;15.474;2022-12-07T02:38:45;13.30;;;9.33;;
11761;SDS011;5938;47.098;15.474;2022-12-07T02:42:58;24.60;;;10.37;;
11761;SDS011;5938;47.098;15.474;2022-12-07T02:47:08;23.37;;;9.70;;
11761;SDS011;5938;47.098;15.474;2022-12-07T02:51:15;16.43;;;9.37;;
11761;SDS011;5938;47.098;15.474;2022-12-07T02:55:22;23.60;;;9.60;;
11761;SDS011;5938;47.098;15.474;2022-12-07T02:59:33;36.00;;;10.10;;
11761;SDS011;5938;47.098;15.474;2022-12-07T03:03:48;27.87;;;10.10;;
11761;SDS011;5938;47.098;15.474;2022-12-07T03:08:02;19.17;;;8.27;;
11761;SDS011;5938;47.098;15.474;2022-12-07T03:12:12;12.20;;;7.83;;
11761;SDS011;5938;47.098;15.474;2022-12-07T03:16:20;17.00;;;7.47;;
11761;SDS011;5938;47.098;15.474;2022-12-07T03:20:29;22.87;;;9.20;;
11761;SDS011;5938;47.098;15.474;2022-12-07T03:24:35;14.13;;;8.67;;
11761;SDS011;5938;47.098;15.474;2022-12-07T03:28:43;13.70;;;7.90;;
11761;SDS011;5938;47.098;15.474;2022-12-07T03:32:53;9.50;;;6.90;;
11761;SDS011;5938;47.098;15.474;2022-12-07T03:37:04;14.73;;;8.30;;
11761;SDS011;5938;47.098;15.474;2022-12-07T03:41:11;29.17;;;8.97;;
11761;SDS011;5938;47.098;15.474;2022-12-07T03:45:17;14.83;;;10.30;;
11761;SDS011;5938;47.098;15.474;2022-12-07T03:49:23;34.73;;;10.93;;
11761;SDS011;5938;47.098;15.474;2022-12-07T03:53:33;39.67;;;12.30;;
11761;SDS011;5938;47.098;15.474;2022-12-07T03:57:39;26.57;;;10.27;;
11761;SDS011;5938;47.098;15.474;2022-12-07T04:01:51;21.83;;;8.83;;
11761;SDS011;5938;47.098;15.474;2022-12-07T04:05:56;15.60;;;8.03;;
11761;SDS011;5938;47.098;15.474;2022-12-07T04:10:02;25.87;;;11.07;;
11761;SDS011;5938;47.098;15.474;2022-12-07T04:14:05;15.83;;;8.30;;
11761;SDS011;5938;47.098;15.474;2022-12-07T04:18:21;13.33;;;8.00;;
11761;SDS011;5938;47.098;15.474;2022-12-07T04:22:25;20.07;;;8.93;;
11761;SDS011;5938;47.098;15.474;2022-12-07T04:26:29;31.90;;;9.00;;
11761;SDS011;5938;47.098;15.474;2022-12-07T04:30:33;20.93;;;8.50;;
11761;SDS011;5938;47.098;15.474;2022-12-07T04:34:36;19.10;;;8.77;;
11761;SDS011;5938;47.098;15.474;2022-12-07T04:38:40;29.80;;;10.80;;
11761;SDS011;5938;47.098;15.474;2022-12-07T04:42:44;11.80;;;7.80;;
11761;SDS011;5938;47.098;15.474;2022-12-07T04:46:47;21.70;;;9.77;;
11761;SDS011;5938;47.098;15.474;2022-12-07T04:50:51;21.47;;;9.23;;
11761;SDS011;5938;47.098;15.474;2022-12-07T04:54:55;23.13;;;9.67;;
11761;SDS011;5938;47.098;15.474;2022-12-07T04:58:59;38.97;;;9.47;;
11761;SDS011;5938;47.098;15.474;2022-12-07T05:03:03;40.23;;;9.93;;
11761;SDS011;5938;47.098;15.474;2022-12-07T05:07:06;14.13;;;8.43;;
11761;SDS011;5938;47.098;15.474;2022-12-07T05:11:11;22.97;;;11.27;;
11761;SDS011;5938;47.098;15.474;2022-12-07T05:15:36;45.53;;;12.93;;
11761;SDS011;5938;47.098;15.474;2022-12-07T05:19:40;24.33;;;11.27;;
11761;SDS011;5938;47.098;15.474;2022-12-07T05:23:43;24.13;;;10.90;;
11761;SDS011;5938;47.098;15.474;2022-12-07T05:27:53;13.20;;;8.30;;
11761;SDS011;5938;47.098;15.474;2022-12-07T05:31:58;13.13;;;8.20;;
11761;SDS011;5938;47.098;15.474;2022-12-07T05:36:02;9.77;;;7.20;;
11761;SDS011;5938;47.098;15.474;2022-12-07T05:40:07;12.20;;;7.70;;
11761;SDS011;5938;47.098;15.474;2022-12-07T05:44:11;19.07;;;8.30;;
11761;SDS011;5938;47.098;15.474;2022-12-07T05:48:16;14.07;;;10.03;;
11761;SDS011;5938;47.098;15.474;2022-12-07T05:52:19;29.87;;;10.13;;
11761;SDS011;5938;47.098;15.474;2022-12-07T05:56:23;37.50;;;20.83;;
11761;SDS011;5938;47.098;15.474;2022-12-07T06:00:27;22.23;;;15.83;;
11761;SDS011;5938;47.098;15.474;2022-12-07T06:04:33;50.90;;;12.37;;
11761;SDS011;5938;47.098;15.474;2022-12-07T06:08:38;15.20;;;10.80;;
11761;SDS011;5938;47.098;15.474;2022-12-07T06:12:42;17.97;;;7.83;;
11761;SDS011;5938;47.098;15.474;2022-12-07T06:16:47;26.33;;;12.03;;
11761;SDS011;5938;47.098;15.474;2022-12-07T06:20:52;38.77;;;10.50;;
11761;SDS011;5938;47.098;15.474;2022-12-07T06:24:55;36.40;;;11.27;;
11761;SDS011;5938;47.098;15.474;2022-12-07T06:28:59;161.00;;;56.13;;
11761;SDS011;5938;47.098;15.474;2022-12-07T06:33:02;23.73;;;10.93;;
11761;SDS011;5938;47.098;15.474;2022-12-07T06:37:07;22.33;;;9.83;;
11761;SDS011;5938;47.098;15.474;2022-12-07T06:41:10;18.37;;;10.67;;
11761;SDS011;5938;47.098;15.474;2022-12-07T06:45:13;34.13;;;15.63;;
11761;SDS011;5938;47.098;15.474;2022-12-07T06:49:17;21.97;;;12.63;;
11761;SDS011;5938;47.098;15.474;2022-12-07T06:53:22;25.93;;;10.40;;
11761;SDS011;5938;47.098;15.474;2022-12-07T06:57:25;25.93;;;11.27;;
11761;SDS011;5938;47.098;15.474;2022-12-07T07:01:29;18.53;;;12.53;;
11761;SDS011;5938;47.098;15.474;2022-12-07T07:05:33;18.93;;;10.03;;
11761;SDS011;5938;47.098;15.474;2022-12-07T07:09:39;66.50;;;36.40;;
11761;SDS011;5938;47.098;15.474;2022-12-07T07:13:43;14.73;;;10.43;;
11761;SDS011;5938;47.098;15.474;2022-12-07T07:17:47;14.67;;;8.40;;
11761;SDS011;5938;47.098;15.474;2022-12-07T07:21:50;13.33;;;9.57;;
11761;SDS011;5938;47.098;15.474;2022-12-07T07:25:55;20.03;;;12.30;;
11761;SDS011;5938;47.098;15.474;2022-12-07T07:29:59;18.30;;;10.20;;
11761;SDS011;5938;47.098;15.474;2022-12-07T07:34:02;18.60;;;12.07;;
11761;SDS011;5938;47.098;15.474;2022-12-07T07:38:07;18.27;;;10.47;;
11761;SDS011;5938;47.098;15.474;2022-12-07T07:42:12;16.57;;;9.60;;
11761;SDS011;5938;47.098;15.474;2022-12-07T07:46:16;14.27;;;11.10;;
11761;SDS011;5938;47.098;15.474;2022-12-07T07:50:20;20.33;;;12.50;;
11761;SDS011;5938;47.098;15.474;2022-12-07T07:54:23;17.73;;;11.90;;
11761;SDS011;5938;47.098;15.474;2022-12-07T07:58:28;15.40;;;11.40;;
11761;SDS011;5938;47.098;15.474;2022-12-07T08:02:31;18.60;;;12.80;;
11761;SDS011;5938;47.098;15.474;2022-12-07T08:06:35;14.70;;;10.73;;
11761;SDS011;5938;47.098;15.474;2022-12-07T08:10:38;12.50;;;9.37;;
11761;SDS011;5938;47.098;15.474;2022-12-07T08:14:44;13.27;;;9.43;;
11761;SDS011;5938;47.098;15.474;2022-12-07T08:18:47;12.03;;;9.37;;
11761;SDS011;5938;47.098;15.474;2022-12-07T08:22:56;12.20;;;10.00;;
11761;SDS011;5938;47.098;15.474;2022-12-07T08:27:00;12.37;;;10.37;;
11761;SDS011;5938;47.098;15.474;2022-12-07T08:31:07;12.00;;;9.97;;
11761;SDS011;5938;47.098;15.474;2022-12-07T08:35:14;13.03;;;10.47;;
11761;SDS011;5938;47.098;15.474;2022-12-07T08:39:20;13.27;;;11.17;;
11761;SDS011;5938;47.098;15.474;2022-12-07T08:43:32;11.27;;;9.33;;
11761;SDS011;5938;47.098;15.474;2022-12-07T08:47:38;11.33;;;8.60;;
11761;SDS011;5938;47.098;15.474;2022-12-07T08:51:46;8.00;;;6.77;;
11761;SDS011;5938;47.098;15.474;2022-12-07T08:55:50;14.13;;;8.30;;
11761;SDS011;5938;47.098;15.474;2022-12-07T08:59:53;8.70;;;7.47;;
11761;SDS011;5938;47.098;15.474;2022-12-07T09:04:06;12.10;;;6.80;;
11761;SDS011;5938;47.098;15.474;2022-12-07T09:08:09;6.93;;;6.23;;
11761;SDS011;5938;47.098;15.474;2022-12-07T09:12:13;8.17;;;6.40;;
11761;SDS011;5938;47.098;15.474;2022-12-07T09:16:16;7.73;;;6.40;;
11761;SDS011;5938;47.098;15.474;2022-12-07T09:20:21;7.23;;;6.20;;
11761;SDS011;5938;47.098;15.474;2022-12-07T09:24:28;5.70;;;5.10;;
11761;SDS011;5938;47.098;15.474;2022-12-07T09:28:32;5.70;;;5.10;;
11761;SDS011;5938;47.098;15.474;2022-12-07T09:32:35;6.50;;;5.87;;
11761;SDS011;5938;47.098;15.474;2022-12-07T09:36:41;11.17;;;7.17;;
11761;SDS011;5938;47.098;15.474;2022-12-07T09:40:47;7.60;;;6.83;;
11761;SDS011;5938;47.098;15.474;2022-12-07T09:44:50;7.00;;;6.30;;
11761;SDS011;5938;47.098;15.474;2022-12-07T09:48:54;5.83;;;5.23;;
11761;SDS011;5938;47.098;15.474;2022-12-07T09:53:04;7.17;;;5.40;;
11761;SDS011;5938;47.098;15.474;2022-12-07T09:57:10;6.37;;;5.07;;
11761;SDS011;5938;47.098;15.474;2022-12-07T10:01:15;6.13;;;5.43;;
11761;SDS011;5938;47.098;15.474;2022-12-07T10:05:20;6.73;;;5.40;;
11761;SDS011;5938;47.098;15.474;2022-12-07T10:09:29;7.50;;;4.90;;
11761;SDS011;5938;47.098;15.474;2022-12-07T10:13:37;6.43;;;5.83;;
11761;SDS011;5938;47.098;15.474;2022-12-07T10:17:47;5.13;;;4.63;;
11761;SDS011;5938;47.098;15.474;2022-12-07T10:22:11;9.00;;;5.47;;
11761;SDS011;5938;47.098;15.474;2022-12-07T10:26:27;5.23;;;4.73;;
11761;SDS011;5938;47.098;15.474;2022-12-07T10:30:45;5.00;;;4.33;;
11761;SDS011;5938;47.098;15.474;2022-12-07T10:39:25;5.57;;;4.77;;
11761;SDS011;5938;47.098;15.474;2022-12-07T10:43:30;5.63;;;5.20;;
11761;SDS011;5938;47.098;15.474;2022-12-07T10:47:34;6.03;;;5.20;;
11761;SDS011;5938;47.098;15.474;2022-12-07T10:51:42;6.60;;;5.57;;
11761;SDS011;5938;47.098;15.474;2022-12-07T10:55:56;5.43;;;4.90;;
11761;SDS011;5938;47.098;15.474;2022-12-07T11:00:21;7.10;;;6.40;;
11761;SDS011;5938;47.098;15.474;2022-12-07T11:04:29;7.13;;;5.60;;
11761;SDS011;5938;47.098;15.474;2022-12-07T11:08:40;6.27;;;5.77;;
11761;SDS011;5938;47.098;15.474;2022-12-07T11:13:00;6.10;;;5.50;;
11761;SDS011;5938;47.098;15.474;2022-12-07T11:17:32;5.60;;;5.10;;
11761;SDS011;5938;47.098;15.474;2022-12-07T11:21:48;5.60;;;4.50;;
11761;SDS011;5938;47.098;15.474;2022-12-07T11:25:59;5.77;;;5.27;;
11761;SDS011;5938;47.098;15.474;2022-12-07T11:30:13;7.00;;;5.97;;
11761;SDS011;5938;47.098;15.474;2022-12-07T11:34:22;6.77;;;5.40;;
11761;SDS011;5938;47.098;15.474;2022-12-07T11:38:37;5.57;;;5.07;;
11761;SDS011;5938;47.098;15.474;2022-12-07T11:42:46;9.03;;;5.33;;
11761;SDS011;5938;47.098;15.474;2022-12-07T11:46:56;6.93;;;5.90;;
11761;SDS011;5938;47.098;15.474;2022-12-07T11:51:06;6.17;;;5.57;;
11761;SDS011;5938;47.098;15.474;2022-12-07T11:55:16;5.47;;;4.97;;
11761;SDS011;5938;47.098;15.474;2022-12-07T11:59:25;8.17;;;5.67;;
11761;SDS011;5938;47.098;15.474;2022-12-07T12:03:36;6.93;;;6.30;;
11761;SDS011;5938;47.098;15.474;2022-12-07T12:07:53;6.27;;;5.67;;
11761;SDS011;5938;47.098;15.474;2022-12-07T12:17:33;7.60;;;5.97;;
11761;SDS011;5938;47.098;15.474;2022-12-07T12:21:53;7.17;;;5.73;;
11761;SDS011;5938;47.098;15.474;2022-12-07T12:26:01;8.63;;;5.97;;
11761;SDS011;5938;47.098;15.474;2022-12-07T12:30:07;8.43;;;6.40;;
11761;SDS011;5938;47.098;15.474;2022-12-07T12:34:38;7.17;;;6.07;;
11761;SDS011;5938;47.098;15.474;2022-12-07T12:38:51;6.20;;;5.60;;
11761;SDS011;5938;47.098;15.474;2022-12-07T12:47:56;7.20;;;6.20;;
11761;SDS011;5938;47.098;15.474;2022-12-07T12:52:01;6.00;;;5.40;;
11761;SDS011;5938;47.098;15.474;2022-12-07T12:56:55;6.00;;;5.40;;
11761;SDS011;5938;47.098;15.474;2022-12-07T13:05:48;7.27;;;6.47;;
11761;SDS011;5938;47.098;15.474;2022-12-07T13:10:43;5.07;;;4.63;;
11761;SDS011;5938;47.098;15.474;2022-12-07T13:23:52;6.13;;;5.27;;
11761;SDS011;5938;47.098;15.474;2022-12-07T13:28:02;5.80;;;5.20;;
11761;SDS011;5938;47.098;15.474;2022-12-07T13:32:17;4.97;;;4.57;;
11761;SDS011;5938;47.098;15.474;2022-12-07T13:36:29;6.50;;;4.77;;
11761;SDS011;5938;47.098;15.474;2022-12-07T13:40:41;5.30;;;4.90;;
11761;SDS011;5938;47.098;15.474;2022-12-07T13:44:46;5.03;;;4.60;;
11761;SDS011;5938;47.098;15.474;2022-12-07T13:48:49;6.57;;;5.13;;
11761;SDS011;5938;47.098;15.474;2022-12-07T13:52:55;5.83;;;4.70;;
11761;SDS011;5938;47.098;15.474;2022-12-07T13:56:59;7.00;;;5.90;;
11761;SDS011;5938;47.098;15.474;2022-12-07T14:01:04;9.37;;;6.57;;
11761;SDS011;5938;47.098;15.474;2022-12-07T14:05:09;6.20;;;5.27;;
11761;SDS011;5938;47.098;15.474;2022-12-07T14:09:19;5.93;;;5.33;;
11761;SDS011;5938;47.098;15.474;2022-12-07T14:13:26;6.73;;;6.13;;
11761;SDS011;5938;47.098;15.474;2022-12-07T14:17:35;7.63;;;6.27;;
11761;SDS011;5938;47.098;15.474;2022-12-07T14:21:39;6.67;;;5.97;;
11761;SDS011;5938;47.098;15.474;2022-12-07T14:25:45;7.33;;;6.60;;
11761;SDS011;5938;47.098;15.474;2022-12-07T14:29:52;7.90;;;6.50;;
11761;SDS011;5938;47.098;15.474;2022-12-07T14:33:59;7.53;;;6.83;;
11761;SDS011;5938;47.098;15.474;2022-12-07T14:38:03;7.73;;;6.93;;
11761;SDS011;5938;47.098;15.474;2022-12-07T14:42:07;7.30;;;6.60;;
11761;SDS011;5938;47.098;15.474;2022-12-07T14:46:10;8.67;;;7.77;;
11761;SDS011;5938;47.098;15.474;2022-12-07T14:50:15;10.23;;;7.50;;
11761;SDS011;5938;47.098;15.474;2022-12-07T14:54:21;10.40;;;7.70;;
11761;SDS011;5938;47.098;15.474;2022-12-07T14:58:28;10.30;;;8.17;;
11761;SDS011;5938;47.098;15.474;2022-12-07T15:02:31;11.67;;;8.93;;
11761;SDS011;5938;47.098;15.474;2022-12-07T15:06:36;10.83;;;7.70;;
11761;SDS011;5938;47.098;15.474;2022-12-07T15:10:41;9.23;;;7.60;;
11761;SDS011;5938;47.098;15.474;2022-12-07T15:14:44;11.40;;;9.00;;
11761;SDS011;5938;47.098;15.474;2022-12-07T15:18:48;10.50;;;8.20;;
11761;SDS011;5938;47.098;15.474;2022-12-07T15:23:13;12.20;;;8.97;;
11761;SDS011;5938;47.098;15.474;2022-12-07T15:27:16;22.27;;;8.67;;
11761;SDS011;5938;47.098;15.474;2022-12-07T15:31:20;11.40;;;9.30;;
11761;SDS011;5938;47.098;15.474;2022-12-07T15:35:44;12.87;;;9.57;;
11761;SDS011;5938;47.098;15.474;2022-12-07T15:39:49;12.93;;;10.37;;
11761;SDS011;5938;47.098;15.474;2022-12-07T15:43:52;12.00;;;9.93;;
11761;SDS011;5938;47.098;15.474;2022-12-07T15:48:31;13.27;;;9.63;;
11761;SDS011;5938;47.098;15.474;2022-12-07T15:52:34;13.53;;;10.50;;
11761;SDS011;5938;47.098;15.474;2022-12-07T15:56:39;13.67;;;11.60;;
11761;SDS011;5938;47.098;15.474;2022-12-07T16:00:43;10.43;;;9.33;;
11761;SDS011;5938;47.098;15.474;2022-12-07T16:04:46;14.13;;;12.23;;
11761;SDS011;5938;47.098;15.474;2022-12-07T16:08:49;14.53;;;11.83;;
11761;SDS011;5938;47.098;15.474;2022-12-07T16:12:54;17.87;;;12.80;;
11761;SDS011;5938;47.098;15.474;2022-12-07T16:16:58;16.07;;;11.37;;
11761;SDS011;5938;47.098;15.474;2022-12-07T16:21:02;14.70;;;12.23;;
11761;SDS011;5938;47.098;15.474;2022-12-07T16:25:06;15.50;;;12.00;;
11761;SDS011;5938;47.098;15.474;2022-12-07T16:29:13;21.60;;;14.80;;
11761;SDS011;5938;47.098;15.474;2022-12-07T16:33:17;22.03;;;16.70;;
11761;SDS011;5938;47.098;15.474;2022-12-07T16:37:20;24.43;;;18.50;;
11761;SDS011;5938;47.098;15.474;2022-12-07T16:41:24;22.47;;;16.03;;
11761;SDS011;5938;47.098;15.474;2022-12-07T16:45:31;25.97;;;16.93;;
11761;SDS011;5938;47.098;15.474;2022-12-07T16:49:38;27.30;;;19.77;;
11761;SDS011;5938;47.098;15.474;2022-12-07T16:53:41;25.40;;;17.00;;
11761;SDS011;5938;47.098;15.474;2022-12-07T16:57:45;30.60;;;18.50;;
11761;SDS011;5938;47.098;15.474;2022-12-07T17:01:51;28.37;;;20.07;;
11761;SDS011;5938;47.098;15.474;2022-12-07T17:05:54;36.07;;;22.80;;
11761;SDS011;5938;47.098;15.474;2022-12-07T17:09:58;34.13;;;23.80;;
11761;SDS011;5938;47.098;15.474;2022-12-07T17:14:01;32.93;;;21.07;;
11761;SDS011;5938;47.098;15.474;2022-12-07T17:18:25;32.80;;;19.80;;
11761;SDS011;5938;47.098;15.474;2022-12-07T17:22:30;24.33;;;18.63;;
11761;SDS011;5938;47.098;15.474;2022-12-07T17:26:34;31.27;;;19.67;;
11761;SDS011;5938;47.098;15.474;2022-12-07T17:30:38;36.20;;;22.83;;
11761;SDS011;5938;47.098;15.474;2022-12-07T17:34:44;28.00;;;20.00;;
11761;SDS011;5938;47.098;15.474;2022-12-07T17:38:48;23.80;;;19.27;;
11761;SDS011;5938;47.098;15.474;2022-12-07T17:42:53;31.53;;;21.60;;
11761;SDS011;5938;47.098;15.474;2022-12-07T17:46:57;28.83;;;20.80;;
11761;SDS011;5938;47.098;15.474;2022-12-07T17:51:04;26.23;;;18.20;;
11761;SDS011;5938;47.098;15.474;2022-12-07T17:55:27;33.00;;;20.97;;
11761;SDS011;5938;47.098;15.474;2022-12-07T17:59:51;22.97;;;19.67;;
11761;SDS011;5938;47.098;15.474;2022-12-07T18:03:56;29.20;;;19.53;;
11761;SDS011;5938;47.098;15.474;2022-12-07T18:08:03;32.23;;;21.70;;
11761;SDS011;5938;47.098;15.474;2022-12-07T18:12:09;33.57;;;22.03;;
11761;SDS011;5938;47.098;15.474;2022-12-07T18:16:14;35.20;;;19.43;;
11761;SDS011;5938;47.098;15.474;2022-12-07T18:20:20;30.00;;;20.33;;
11761;SDS011;5938;47.098;15.474;2022-12-07T18:24:25;28.47;;;21.80;;
11761;SDS011;5938;47.098;15.474;2022-12-07T18:28:37;24.67;;;19.93;;
11761;SDS011;5938;47.098;15.474;2022-12-07T18:32:42;30.87;;;21.37;;
11761;SDS011;5938;47.098;15.474;2022-12-07T18:36:46;27.53;;;19.87;;
11761;SDS011;5938;47.098;15.474;2022-12-07T18:40:54;26.37;;;19.03;;
11761;SDS011;5938;47.098;15.474;2022-12-07T18:44:59;28.67;;;20.20;;
11761;SDS011;5938;47.098;15.474;2022-12-07T18:49:04;30.27;;;20.60;;
11761;SDS011;5938;47.098;15.474;2022-12-07T18:53:10;25.93;;;17.60;;
11761;SDS011;5938;47.098;15.474;2022-12-07T18:57:32;30.47;;;20.53;;
11761;SDS011;5938;47.098;15.474;2022-12-07T19:01:48;25.60;;;18.83;;
11761;SDS011;5938;47.098;15.474;2022-12-07T19:06:08;36.47;;;23.87;;
11761;SDS011;5938;47.098;15.474;2022-12-07T19:10:17;29.70;;;22.40;;
11761;SDS011;5938;47.098;15.474;2022-12-07T19:14:37;29.33;;;20.20;;
11761;SDS011;5938;47.098;15.474;2022-12-07T19:18:41;34.27;;;21.60;;
11761;SDS011;5938;47.098;15.474;2022-12-07T19:22:51;32.40;;;20.40;;
11761;SDS011;5938;47.098;15.474;2022-12-07T19:27:07;29.80;;;18.73;;
11761;SDS011;5938;47.098;15.474;2022-12-07T19:31:13;35.37;;;22.40;;
11761;SDS011;5938;47.098;15.474;2022-12-07T19:35:20;28.67;;;19.80;;
11761;SDS011;5938;47.098;15.474;2022-12-07T19:39:25;29.33;;;19.97;;
11761;SDS011;5938;47.098;15.474;2022-12-07T19:43:32;26.07;;;19.13;;
11761;SDS011;5938;47.098;15.474;2022-12-07T19:47:47;25.40;;;18.83;;
11761;SDS011;5938;47.098;15.474;2022-12-07T19:51:54;28.30;;;20.27;;
11761;SDS011;5938;47.098;15.474;2022-12-07T19:55:59;25.90;;;19.00;;
11761;SDS011;5938;47.098;15.474;2022-12-07T20:00:06;29.90;;;22.50;;
11761;SDS011;5938;47.098;15.474;2022-12-07T20:04:14;65.17;;;40.30;;
11761;SDS011;5938;47.098;15.474;2022-12-07T20:08:25;49.50;;;29.13;;
11761;SDS011;5938;47.098;15.474;2022-12-07T20:12:30;25.73;;;17.80;;
11761;SDS011;5938;47.098;15.474;2022-12-07T20:16:51;27.77;;;19.67;;
11761;SDS011;5938;47.098;15.474;2022-12-07T20:20:57;27.97;;;18.43;;
11761;SDS011;5938;47.098;15.474;2022-12-07T20:25:04;27.00;;;17.53;;
11761;SDS011;5938;47.098;15.474;2022-12-07T20:29:13;23.53;;;18.33;;
11761;SDS011;5938;47.098;15.474;2022-12-07T20:33:22;29.57;;;19.80;;
11761;SDS011;5938;47.098;15.474;2022-12-07T20:37:32;28.97;;;18.40;;
11761;SDS011;5938;47.098;15.474;2022-12-07T20:41:39;31.40;;;19.03;;
11761;SDS011;5938;47.098;15.474;2022-12-07T20:46:02;31.77;;;19.27;;
11761;SDS011;5938;47.098;15.474;2022-12-07T20:50:09;24.87;;;19.70;;
11761;SDS011;5938;47.098;15.474;2022-12-07T20:54:16;23.73;;;18.10;;
11761;SDS011;5938;47.098;15.474;2022-12-07T20:58:21;22.00;;;16.80;;
11761;SDS011;5938;47.098;15.474;2022-12-07T21:02:29;21.30;;;15.90;;
11761;SDS011;5938;47.098;15.474;2022-12-07T21:06:41;40.03;;;30.27;;
11761;SDS011;5938;47.098;15.474;2022-12-07T21:10:47;44.47;;;29.30;;
11761;SDS011;5938;47.098;15.474;2022-12-07T21:14:51;24.10;;;18.70;;
11761;SDS011;5938;47.098;15.474;2022-12-07T21:18:57;27.70;;;19.50;;
11761;SDS011;5938;47.098;15.474;2022-12-07T21:23:03;25.63;;;18.07;;
11761;SDS011;5938;47.098;15.474;2022-12-07T21:27:08;24.10;;;16.70;;
11761;SDS011;5938;47.098;15.474;2022-12-07T21:31:12;23.87;;;17.20;;
11761;SDS011;5938;47.098;15.474;2022-12-07T21:35:16;36.70;;;23.07;;
11761;SDS011;5938;47.098;15.474;2022-12-07T21:39:19;35.60;;;22.90;;
11761;SDS011;5938;47.098;15.474;2022-12-07T21:43:24;34.47;;;23.60;;
11761;SDS011;5938;47.098;15.474;2022-12-07T21:47:28;33.73;;;22.97;;
11761;SDS011;5938;47.098;15.474;2022-12-07T21:51:31;32.67;;;21.73;;
11761;SDS011;5938;47.098;15.474;2022-12-07T21:55:37;33.90;;;20.60;;
11761;SDS011;5938;47.098;15.474;2022-12-07T21:59:42;39.03;;;23.77;;
11761;SDS011;5938;47.098;15.474;2022-12-07T22:03:46;35.07;;;22.50;;
11761;SDS011;5938;47.098;15.474;2022-12-07T22:07:50;34.00;;;21.43;;
11761;SDS011;5938;47.098;15.474;2022-12-07T22:11:53;30.10;;;20.27;;
11761;SDS011;5938;47.098;15.474;2022-12-07T22:15:58;32.07;;;20.37;;
11761;SDS011;5938;47.098;15.474;2022-12-07T22:20:02;35.30;;;21.83;;
11761;SDS011;5938;47.098;15.474;2022-12-07T22:24:06;37.10;;;24.00;;
11761;SDS011;5938;47.098;15.474;2022-12-07T22:28:09;35.50;;;20.83;;
11761;SDS011;5938;47.098;15.474;2022-12-07T22:32:14;28.77;;;18.63;;
11761;SDS011;5938;47.098;15.474;2022-12-07T22:36:37;29.77;;;19.77;;
11761;SDS011;5938;47.098;15.474;2022-12-07T22:40:40;31.73;;;21.17;;
11761;SDS011;5938;47.098;15.474;2022-12-07T22:44:43;37.60;;;22.60;;
11761;SDS011;5938;47.098;15.474;2022-12-07T22:48:48;31.93;;;20.43;;
11761;SDS011;5938;47.098;15.474;2022-12-07T22:52:52;34.70;;;23.50;;
11761;SDS011;5938;47.098;15.474;2022-12-07T22:56:56;35.80;;;20.77;;
11761;SDS011;5938;47.098;15.474;2022-12-07T23:01:05;31.37;;;20.87;;
11761;SDS011;5938;47.098;15.474;2022-12-07T23:05:10;35.93;;;21.70;;
11761;SDS011;5938;47.098;15.474;2022-12-07T23:09:13;32.53;;;20.13;;
11761;SDS011;5938;47.098;15.474;2022-12-07T23:13:17;39.70;;;23.80;;
11761;SDS011;5938;47.098;15.474;2022-12-07T23:17:37;33.50;;;21.17;;
11761;SDS011;5938;47.098;15.474;2022-12-07T23:21:42;36.00;;;21.07;;
11761;SDS011;5938;47.098;15.474;2022-12-07T23:25:46;40.03;;;22.20;;
11761;SDS011;5938;47.098;15.474;2022-12-07T23:29:50;37.57;;;24.00;;
11761;SDS011;5938;47.098;15.474;2022-12-07T23:33:53;38.03;;;22.90;;
11761;SDS011;5938;47.098;15.474;2022-12-07T23:37:58;37.67;;;21.30;;
11761;SDS011;5938;47.098;15.474;2022-12-07T23:42:01;43.10;;;22.67;;
11761;SDS011;5938;47.098;15.474;2022-12-07T23:46:05;40.73;;;23.00;;
11761;SDS011;5938;47.098;15.474;2022-12-07T23:50:09;35.90;;;22.67;;
11761;SDS011;5938;47.098;15.474;2022-12-07T23:54:14;32.13;;;22.57;;
11761;SDS011;5938;47.098;15.474;2022-12-07T23:58:17;41.57;;;21.10;;
